createdAt,value
2022-12-15T00:00:04.906Z,1.70
2022-12-15T00:02:25.547Z,1.70
2022-12-15T00:04:45.893Z,1.70
2022-12-15T00:07:06.386Z,1.70
2022-12-15T00:09:30.798Z,1.70
2022-12-15T00:11:51.474Z,1.70
2022-12-15T00:14:12.260Z,1.70
2022-12-15T00:16:32.957Z,1.80
2022-12-15T00:18:53.389Z,1.80
2022-12-15T00:21:17.528Z,1.70
2022-12-15T00:23:37.965Z,1.70
2022-12-15T00:25:58.363Z,1.60
2022-12-15T00:28:18.845Z,1.60
2022-12-15T00:30:39.453Z,1.50
2022-12-15T00:33:00.007Z,1.50
2022-12-15T00:35:20.487Z,1.40
2022-12-15T00:37:41.129Z,1.40
2022-12-15T00:39:42.956Z,1.40
2022-12-15T00:41:44.699Z,1.40
2022-12-15T00:43:46.810Z,1.40
2022-12-15T00:46:06.925Z,1.40
2022-12-15T00:48:08.657Z,1.40
2022-12-15T00:50:29.171Z,1.40
2022-12-15T00:52:49.689Z,1.40
2022-12-15T00:55:10.145Z,1.60
2022-12-15T00:57:30.744Z,1.30
2022-12-15T00:59:51.327Z,1.30
2022-12-15T01:02:11.730Z,1.30
2022-12-15T01:04:32.055Z,1.30
2022-12-15T01:06:52.656Z,1.20
2022-12-15T01:09:13.389Z,1.20
2022-12-15T01:11:33.526Z,1.20
2022-12-15T01:13:54.203Z,1.20
2022-12-15T01:16:14.772Z,1.20
2022-12-15T01:18:35.721Z,1.20
2022-12-15T01:20:37.613Z,1.30
2022-12-15T01:22:40.580Z,1.10
2022-12-15T01:24:42.495Z,1.10
2022-12-15T01:26:44.173Z,1.10
2022-12-15T01:28:45.930Z,1.10
2022-12-15T01:30:48.166Z,1.10
2022-12-15T01:32:50.363Z,1.10
2022-12-15T01:34:52.136Z,1.10
2022-12-15T01:36:53.999Z,1.10
2022-12-15T01:38:55.752Z,1.10
2022-12-15T01:41:07.865Z,1.10
2022-12-15T01:43:32.392Z,1.00
2022-12-15T01:45:46.859Z,1.10
2022-12-15T01:47:48.679Z,1.00
2022-12-15T01:49:51.514Z,1.00
2022-12-15T01:51:58.435Z,1.00
2022-12-15T01:54:15.751Z,1.10
2022-12-15T01:56:19.705Z,1.00
2022-12-15T01:58:22.752Z,1.00
2022-12-15T02:00:24.528Z,1.00
2022-12-15T02:02:32.357Z,1.00
2022-12-15T02:04:37.929Z,0.90
2022-12-15T02:06:39.828Z,1.10
2022-12-15T02:08:45.022Z,0.90
2022-12-15T02:11:05.141Z,0.90
2022-12-15T02:13:32.164Z,0.90
2022-12-15T02:15:41.856Z,0.90
2022-12-15T02:18:10.878Z,1.00
2022-12-15T02:20:37.828Z,1.00
2022-12-15T02:23:16.684Z,1.00
2022-12-15T02:25:50.798Z,1.00
2022-12-15T02:28:16.222Z,0.90
2022-12-15T02:30:26.538Z,1.00
2022-12-15T02:32:37.170Z,0.90
2022-12-15T02:34:41.976Z,0.90
2022-12-15T02:36:48.607Z,0.90
2022-12-15T02:38:50.555Z,0.90
2022-12-15T02:40:58.651Z,0.90
2022-12-15T02:43:04.173Z,0.90
2022-12-15T02:45:12.849Z,0.90
2022-12-15T02:47:33.263Z,1.00
2022-12-15T02:49:56.969Z,1.00
2022-12-15T02:52:07.592Z,1.00
2022-12-15T02:54:21.886Z,1.00
2022-12-15T02:57:11.475Z,0.90
2022-12-15T02:59:34.007Z,0.90
2022-12-15T03:02:03.804Z,0.90
2022-12-15T03:04:08.154Z,0.90
2022-12-15T03:06:10.114Z,0.90
2022-12-15T03:08:11.849Z,0.90
2022-12-15T03:10:15.215Z,0.80
2022-12-15T03:12:16.972Z,0.80
2022-12-15T03:14:18.770Z,0.80
2022-12-15T03:16:20.916Z,0.80
2022-12-15T03:18:22.737Z,0.80
2022-12-15T03:20:24.483Z,0.80
2022-12-15T03:22:26.336Z,0.80
2022-12-15T03:24:28.028Z,0.80
2022-12-15T03:26:29.762Z,0.80
2022-12-15T03:28:31.487Z,0.80
2022-12-15T03:30:33.295Z,0.70
2022-12-15T03:32:35.019Z,0.70
2022-12-15T03:34:36.773Z,0.70
2022-12-15T03:36:38.626Z,0.80
2022-12-15T03:38:40.401Z,0.80
2022-12-15T03:40:42.380Z,0.80
2022-12-15T03:42:48.464Z,0.80
2022-12-15T03:44:50.179Z,1.00
2022-12-15T03:46:51.985Z,0.80
2022-12-15T03:48:54.391Z,0.80
2022-12-15T03:50:56.156Z,0.70
2022-12-15T03:53:00.384Z,0.70
2022-12-15T03:55:03.483Z,0.70
2022-12-15T03:57:05.194Z,0.70
2022-12-15T03:59:06.984Z,0.70
2022-12-15T04:01:13.990Z,0.60
2022-12-15T04:03:16.152Z,0.60
2022-12-15T04:05:26.213Z,0.60
2022-12-15T04:07:27.977Z,0.60
2022-12-15T04:09:29.781Z,0.60
2022-12-15T04:11:31.526Z,0.60
2022-12-15T04:13:33.580Z,0.60
2022-12-15T04:15:38.033Z,0.70
2022-12-15T04:17:40.253Z,0.60
2022-12-15T04:20:00.693Z,0.60
2022-12-15T04:22:03.633Z,0.60
2022-12-15T04:24:24.433Z,0.50
2022-12-15T04:26:44.966Z,0.50
2022-12-15T04:29:05.145Z,0.50
2022-12-15T04:31:29.753Z,0.50
2022-12-15T04:33:51.112Z,0.50
2022-12-15T04:36:11.509Z,0.50
2022-12-15T04:38:31.859Z,0.50
2022-12-15T04:40:52.073Z,0.50
2022-12-15T04:43:12.664Z,0.50
2022-12-15T04:45:35.371Z,0.50
2022-12-15T04:47:55.618Z,0.50
2022-12-15T04:50:16.032Z,0.50
2022-12-15T04:52:36.407Z,0.40
2022-12-15T04:54:56.383Z,0.40
2022-12-15T04:57:16.733Z,0.40
2022-12-15T04:59:37.595Z,0.40
2022-12-15T05:01:57.941Z,0.40
2022-12-15T05:04:18.516Z,0.40
2022-12-15T05:06:38.929Z,0.40
2022-12-15T05:08:59.175Z,0.30
2022-12-15T05:11:19.713Z,0.30
2022-12-15T05:13:40.422Z,0.30
2022-12-15T05:16:01.024Z,0.30
2022-12-15T05:18:21.652Z,0.30
2022-12-15T05:20:42.299Z,0.20
2022-12-15T05:23:02.699Z,0.20
2022-12-15T05:25:23.494Z,0.30
2022-12-15T05:27:43.596Z,0.20
2022-12-15T05:30:04.138Z,0.30
2022-12-15T05:32:06.667Z,0.20
2022-12-15T05:34:08.357Z,0.20
2022-12-15T05:36:10.059Z,0.20
2022-12-15T05:38:11.867Z,0.10
2022-12-15T05:40:13.705Z,0.10
2022-12-15T05:42:15.491Z,0.10
2022-12-15T05:44:17.476Z,0.10
2022-12-15T05:46:19.743Z,0.10
2022-12-15T05:48:21.598Z,0.10
2022-12-15T05:50:23.574Z,0.10
2022-12-15T05:52:25.372Z,0.10
2022-12-15T05:54:27.255Z,0.10
2022-12-15T05:56:29.582Z,0.20
2022-12-15T05:58:31.614Z,0.20
2022-12-15T06:00:33.938Z,0.20
2022-12-15T06:02:35.681Z,0.20
2022-12-15T06:04:37.541Z,0.20
2022-12-15T06:06:40.088Z,0.20
2022-12-15T06:08:42.240Z,0.30
2022-12-15T06:10:43.971Z,0.30
2022-12-15T06:12:45.777Z,0.20
2022-12-15T06:14:47.506Z,0.20
2022-12-15T06:16:51.928Z,0.30
2022-12-15T06:18:56.268Z,0.30
2022-12-15T06:21:00.640Z,0.20
2022-12-15T06:23:02.375Z,0.20
2022-12-15T06:25:04.438Z,0.40
2022-12-15T06:27:06.157Z,0.30
2022-12-15T06:29:10.648Z,0.30
2022-12-15T06:31:13.555Z,0.30
2022-12-15T06:33:15.416Z,0.30
2022-12-15T06:35:17.131Z,0.30
2022-12-15T06:37:18.896Z,0.30
2022-12-15T06:39:20.700Z,0.30
2022-12-15T06:41:22.933Z,0.30
2022-12-15T06:43:25.242Z,0.30
2022-12-15T06:45:27.037Z,0.30
2022-12-15T06:47:28.769Z,0.30
2022-12-15T06:49:30.518Z,0.30
2022-12-15T06:51:32.778Z,0.30
2022-12-15T06:53:38.066Z,0.20
2022-12-15T06:55:40.298Z,0.20
2022-12-15T06:57:42.115Z,0.20
2022-12-15T06:59:43.995Z,0.20
2022-12-15T07:01:46.192Z,0.20
2022-12-15T07:03:48.540Z,0.20
2022-12-15T07:06:04.866Z,0.20
2022-12-15T07:08:06.915Z,0.20
2022-12-15T07:10:09.231Z,0.30
2022-12-15T07:12:12.710Z,0.20
2022-12-15T07:14:14.489Z,0.20
2022-12-15T07:16:16.556Z,0.30
2022-12-15T07:18:18.684Z,0.20
2022-12-15T07:20:25.531Z,0.20
2022-12-15T07:22:30.448Z,0.20
2022-12-15T07:24:32.178Z,0.20
2022-12-15T07:26:34.304Z,0.20
2022-12-15T07:28:38.803Z,0.30
2022-12-15T07:30:40.557Z,0.20
2022-12-15T07:32:44.202Z,0.20
2022-12-15T07:34:52.019Z,0.20
2022-12-15T07:36:53.736Z,0.30
2022-12-15T07:39:02.865Z,0.20
2022-12-15T07:41:06.804Z,0.20
2022-12-15T07:43:08.603Z,0.20
2022-12-15T07:45:11.167Z,0.20
2022-12-15T07:47:12.797Z,0.30
2022-12-15T07:49:15.141Z,0.20
2022-12-15T07:51:19.842Z,0.20
2022-12-15T07:53:21.941Z,0.20
2022-12-15T07:55:43.348Z,0.20
2022-12-15T07:57:47.690Z,0.30
2022-12-15T07:59:50.573Z,0.30
2022-12-15T08:01:53.700Z,0.30
2022-12-15T08:03:55.619Z,0.30
2022-12-15T08:06:03.624Z,0.30
2022-12-15T08:08:08.513Z,0.30
2022-12-15T08:10:13.978Z,0.30
2022-12-15T08:12:17.303Z,0.30
2022-12-15T08:14:19.597Z,0.40
2022-12-15T08:16:21.893Z,0.40
2022-12-15T08:18:23.674Z,0.40
2022-12-15T08:20:25.778Z,0.40
2022-12-15T08:22:27.550Z,0.40
2022-12-15T08:24:29.273Z,0.40
2022-12-15T08:26:31.710Z,0.50
2022-12-15T08:28:36.868Z,0.40
2022-12-15T08:30:38.890Z,0.50
2022-12-15T08:32:40.647Z,0.50
2022-12-15T08:34:42.730Z,0.50
2022-12-15T08:36:44.515Z,0.50
2022-12-15T08:38:47.458Z,0.50
2022-12-15T08:40:49.213Z,0.50
2022-12-15T08:42:51.034Z,0.50
2022-12-15T08:44:52.748Z,0.50
2022-12-15T08:46:54.554Z,0.60
2022-12-15T08:48:56.698Z,0.60
2022-12-15T08:50:59.893Z,0.60
2022-12-15T08:53:29.702Z,0.60
2022-12-15T08:55:25.376Z,0.60
2022-12-15T08:57:27.405Z,0.60
2022-12-15T08:59:29.166Z,0.70
2022-12-15T09:01:32.686Z,0.70
2022-12-15T09:03:35.707Z,0.70
2022-12-15T09:05:39.090Z,0.80
2022-12-15T09:07:40.827Z,0.80
2022-12-15T09:09:43.146Z,0.80
2022-12-15T09:11:45.009Z,0.80
2022-12-15T09:13:46.811Z,0.90
2022-12-15T09:16:14.917Z,0.90
2022-12-15T09:18:16.654Z,0.90
2022-12-15T09:20:18.488Z,0.90
2022-12-15T09:22:20.298Z,0.90
2022-12-15T09:24:32.282Z,1.00
2022-12-15T09:26:36.296Z,0.90
2022-12-15T09:28:38.964Z,1.00
2022-12-15T09:30:40.810Z,1.00
2022-12-15T09:32:42.632Z,1.00
2022-12-15T09:34:44.351Z,1.00
2022-12-15T09:36:46.057Z,1.00
2022-12-15T09:38:48.396Z,1.00
2022-12-15T09:40:50.226Z,1.00
2022-12-15T09:43:05.016Z,1.10
2022-12-15T09:45:21.240Z,1.10
2022-12-15T09:47:40.543Z,1.10
2022-12-15T09:49:55.994Z,1.20
2022-12-15T09:52:17.183Z,1.20
2022-12-15T09:54:21.333Z,1.20
2022-12-15T09:56:34.305Z,1.20
2022-12-15T09:58:52.313Z,1.20
2022-12-15T10:01:04.574Z,1.30
2022-12-15T10:03:15.298Z,1.30
2022-12-15T10:06:06.823Z,1.30
2022-12-15T10:08:02.980Z,1.30
2022-12-15T10:10:15.396Z,1.30
2022-12-15T10:12:30.660Z,1.30
2022-12-15T10:14:57.929Z,1.40
2022-12-15T10:17:24.027Z,1.40
2022-12-15T10:20:04.051Z,1.50
2022-12-15T10:22:06.139Z,1.50
2022-12-15T10:24:37.481Z,1.50
2022-12-15T10:26:43.191Z,1.50
2022-12-15T10:28:59.871Z,1.50
2022-12-15T10:31:35.088Z,1.50
2022-12-15T10:33:39.858Z,1.50
2022-12-15T10:35:44.056Z,1.50
2022-12-15T10:37:46.110Z,1.50
2022-12-15T10:39:50.444Z,1.50
2022-12-15T10:42:29.749Z,1.50
2022-12-15T10:44:37.799Z,1.60
2022-12-15T10:46:39.958Z,1.60
2022-12-15T10:48:58.427Z,1.60
2022-12-15T10:51:32.739Z,1.60
2022-12-15T10:54:06.712Z,1.60
2022-12-15T10:56:09.332Z,1.60
2022-12-15T10:58:18.614Z,1.70
2022-12-15T11:00:30.113Z,1.70
2022-12-15T11:02:34.246Z,1.70
2022-12-15T11:04:36.422Z,1.70
2022-12-15T11:06:42.406Z,1.70
2022-12-15T11:08:45.142Z,1.70
2022-12-15T11:11:14.433Z,1.80
2022-12-15T11:13:21.693Z,1.80
2022-12-15T11:15:23.410Z,1.90
2022-12-15T11:17:25.254Z,1.90
2022-12-15T11:19:39.550Z,1.90
2022-12-15T11:21:51.914Z,1.90
2022-12-15T11:24:04.336Z,1.90
2022-12-15T11:26:24.331Z,1.90
2022-12-15T11:28:43.895Z,1.90
2022-12-15T11:30:55.738Z,1.90
2022-12-15T11:33:00.148Z,2.00
2022-12-15T11:35:02.270Z,1.90
2022-12-15T11:37:04.096Z,1.90
2022-12-15T11:39:16.156Z,1.90
2022-12-15T11:41:35.590Z,1.80
2022-12-15T11:44:01.029Z,1.90
2022-12-15T11:46:08.980Z,1.80
2022-12-15T11:48:22.430Z,1.80
2022-12-15T11:50:33.359Z,1.80
2022-12-15T11:52:54.519Z,1.80
2022-12-15T11:55:12.790Z,1.80
2022-12-15T11:57:32.775Z,1.80
2022-12-15T12:00:03.263Z,1.80
2022-12-15T12:02:32.186Z,1.80
2022-12-15T12:04:59.317Z,1.80
2022-12-15T12:07:41.552Z,1.80
2022-12-15T12:10:21.497Z,1.80
2022-12-15T12:12:30.625Z,1.80
2022-12-15T12:14:51.329Z,1.80
2022-12-15T12:17:01.845Z,1.80
2022-12-15T12:19:18.588Z,1.80
2022-12-15T12:21:26.608Z,1.80
2022-12-15T12:23:40.518Z,1.80
2022-12-15T12:26:04.057Z,1.80
2022-12-15T12:28:29.828Z,1.80
2022-12-15T12:30:42.635Z,1.80
2022-12-15T12:32:50.586Z,1.80
2022-12-15T12:37:49.558Z,1.80
2022-12-15T12:39:54.078Z,1.70
2022-12-15T12:42:10.088Z,1.70
2022-12-15T12:44:32.237Z,1.70
2022-12-15T12:46:40.574Z,1.70
2022-12-15T12:48:52.118Z,1.80
2022-12-15T12:51:11.020Z,1.80
2022-12-15T12:53:35.239Z,1.80
2022-12-15T12:55:42.216Z,1.80
2022-12-15T12:57:45.256Z,1.80
2022-12-15T12:59:58.029Z,1.80
2022-12-15T13:02:24.659Z,1.80
2022-12-15T13:04:29.698Z,1.80
2022-12-15T13:06:34.791Z,1.80
2022-12-15T13:08:52.040Z,1.80
2022-12-15T13:10:55.375Z,1.90
2022-12-15T13:12:59.313Z,1.90
2022-12-15T13:15:10.571Z,1.80
2022-12-15T13:17:28.523Z,1.80
2022-12-15T13:20:01.999Z,1.80
2022-12-15T13:22:03.673Z,1.90
2022-12-15T13:24:05.540Z,1.90
2022-12-15T13:26:07.244Z,1.80
2022-12-15T13:28:22.668Z,1.80
2022-12-15T13:30:25.028Z,1.80
2022-12-15T13:32:40.127Z,1.70
2022-12-15T13:34:44.052Z,1.70
2022-12-15T13:36:55.531Z,1.70
2022-12-15T13:38:57.560Z,1.70
2022-12-15T13:40:59.271Z,1.60
2022-12-15T13:43:04.139Z,1.60
2022-12-15T13:45:18.286Z,1.60
2022-12-15T13:47:29.973Z,1.60
2022-12-15T13:49:43.209Z,1.50
2022-12-15T13:51:51.548Z,1.50
2022-12-15T13:54:09.936Z,1.50
2022-12-15T13:56:11.609Z,1.50
2022-12-15T13:58:16.396Z,1.40
2022-12-15T14:00:21.540Z,1.40
2022-12-15T14:02:29.127Z,1.40
2022-12-15T14:04:30.889Z,1.30
2022-12-15T14:06:38.677Z,1.30
2022-12-15T14:08:41.458Z,1.20
2022-12-15T14:10:57.053Z,1.20
2022-12-15T14:13:15.416Z,1.20
2022-12-15T14:15:20.105Z,1.20
2022-12-15T14:17:22.476Z,1.10
2022-12-15T14:19:24.631Z,1.10
2022-12-15T14:21:26.996Z,1.10
2022-12-15T14:23:40.369Z,1.10
2022-12-15T14:25:53.176Z,1.10
2022-12-15T14:27:54.872Z,1.00
2022-12-15T14:30:35.544Z,1.00
2022-12-15T14:32:37.698Z,1.00
2022-12-15T14:34:41.891Z,0.90
2022-12-15T14:36:44.546Z,0.90
2022-12-15T14:38:53.203Z,1.00
2022-12-15T14:40:58.137Z,0.90
2022-12-15T14:43:00.151Z,0.90
2022-12-15T14:45:01.928Z,0.90
2022-12-15T14:47:07.220Z,0.90
2022-12-15T14:49:23.789Z,0.90
2022-12-15T14:51:28.324Z,0.90
2022-12-15T14:53:39.931Z,0.90
2022-12-15T14:55:41.750Z,0.80
2022-12-15T14:57:47.612Z,0.90
2022-12-15T14:59:51.318Z,0.90
2022-12-15T15:01:59.609Z,0.90
2022-12-15T15:03:12.825Z,1.80
2022-12-15T15:04:06.575Z,0.80
2022-12-15T15:06:11.137Z,0.90
2022-12-15T15:08:24.060Z,0.80
2022-12-15T15:10:30.034Z,0.80
2022-12-15T15:12:45.291Z,0.80
2022-12-15T15:15:03.017Z,0.80
2022-12-15T15:17:21.227Z,0.80
2022-12-15T15:19:23.094Z,0.80
2022-12-15T15:21:28.373Z,0.80
2022-12-15T15:23:30.499Z,0.80
2022-12-15T15:25:40.679Z,0.80
2022-12-15T15:27:42.777Z,0.80
2022-12-15T15:29:44.599Z,0.80
2022-12-15T15:31:46.586Z,0.80
2022-12-15T15:33:48.378Z,0.90
2022-12-15T15:35:58.277Z,1.00
2022-12-15T15:38:05.645Z,0.90
2022-12-15T15:40:12.249Z,0.90
2022-12-15T15:42:14.001Z,0.90
2022-12-15T15:44:15.944Z,0.90
2022-12-15T15:46:21.716Z,0.90
2022-12-15T15:48:32.189Z,0.90
2022-12-15T15:50:34.338Z,0.90
2022-12-15T15:52:36.192Z,0.90
2022-12-15T15:54:38.546Z,0.90
2022-12-15T15:56:41.606Z,0.80
2022-12-15T15:58:43.881Z,0.90
2022-12-15T16:00:45.750Z,0.80
2022-12-15T16:02:47.868Z,0.80
2022-12-15T16:04:49.728Z,0.90
2022-12-15T16:06:52.635Z,0.80
2022-12-15T16:08:54.927Z,0.90
2022-12-15T16:10:56.793Z,0.90
2022-12-15T16:13:01.798Z,0.90
2022-12-15T16:15:16.321Z,0.80
2022-12-15T16:17:18.754Z,0.80
2022-12-15T16:19:20.573Z,0.80
2022-12-15T16:21:25.843Z,0.80
2022-12-15T16:23:29.354Z,0.80
2022-12-15T16:25:50.541Z,0.80
2022-12-15T16:27:52.664Z,0.80
2022-12-15T16:29:54.391Z,0.80
2022-12-15T16:31:56.145Z,0.80
2022-12-15T16:33:58.509Z,0.80
2022-12-15T16:36:00.252Z,0.80
2022-12-15T16:38:05.095Z,0.80
2022-12-15T16:40:21.637Z,0.80
2022-12-15T16:42:23.354Z,0.80
2022-12-15T16:44:27.139Z,0.70
2022-12-15T16:46:28.944Z,0.70
2022-12-15T16:48:31.173Z,0.70
2022-12-15T16:50:34.631Z,0.70
2022-12-15T16:52:36.265Z,0.70
2022-12-15T16:54:38.079Z,0.60
2022-12-15T16:56:39.840Z,0.60
2022-12-15T16:58:41.622Z,0.60
2022-12-15T17:00:44.813Z,0.60
2022-12-15T17:02:47.129Z,0.50
2022-12-15T17:04:48.975Z,0.50
2022-12-15T17:06:51.869Z,0.50
2022-12-15T17:08:56.525Z,0.50
2022-12-15T17:10:58.480Z,0.50
2022-12-15T17:13:05.789Z,0.60
2022-12-15T17:15:26.253Z,0.60
2022-12-15T17:17:30.146Z,0.60
2022-12-15T17:19:31.841Z,0.60
2022-12-15T17:21:37.082Z,0.60
2022-12-15T17:23:41.037Z,0.60
2022-12-15T17:28:40.682Z,0.60
2022-12-15T17:30:42.682Z,0.60
2022-12-15T17:32:45.687Z,0.60
2022-12-15T17:34:47.581Z,0.60
2022-12-15T17:36:49.387Z,0.60
2022-12-15T17:39:01.661Z,0.60
2022-12-15T17:41:03.486Z,0.60
2022-12-15T17:43:14.902Z,0.50
2022-12-15T17:45:18.321Z,0.50
2022-12-15T17:47:20.172Z,0.60
2022-12-15T17:49:22.064Z,0.60
2022-12-15T17:51:23.769Z,0.60
2022-12-15T17:53:26.104Z,0.60
2022-12-15T17:55:34.868Z,0.50
2022-12-15T17:57:37.400Z,0.60
2022-12-15T17:59:39.262Z,0.60
2022-12-15T18:01:43.005Z,0.60
2022-12-15T18:03:45.030Z,0.60
2022-12-15T18:05:48.674Z,0.60
2022-12-15T18:07:53.648Z,0.60
2022-12-15T18:09:55.434Z,0.60
2022-12-15T18:11:57.242Z,0.60
2022-12-15T18:13:59.038Z,0.60
2022-12-15T18:16:04.089Z,0.60
2022-12-15T18:18:06.431Z,0.60
2022-12-15T18:20:08.703Z,0.70
2022-12-15T18:22:18.691Z,0.70
2022-12-15T18:24:21.662Z,0.60
2022-12-15T18:26:23.726Z,0.70
2022-12-15T18:28:31.367Z,0.70
2022-12-15T18:30:33.109Z,0.70
2022-12-15T18:32:40.006Z,0.70
2022-12-15T18:34:41.787Z,0.70
2022-12-15T18:36:44.238Z,0.70
2022-12-15T18:38:46.099Z,0.80
2022-12-15T18:40:52.757Z,0.70
2022-12-15T18:42:54.698Z,0.70
2022-12-15T18:44:58.713Z,0.70
2022-12-15T18:47:00.520Z,0.70
2022-12-15T18:49:02.295Z,0.70
2022-12-15T18:51:15.699Z,0.70
2022-12-15T18:53:24.017Z,0.70
2022-12-15T18:55:28.798Z,0.70
2022-12-15T18:57:38.224Z,0.70
2022-12-15T18:59:40.135Z,0.80
2022-12-15T19:01:43.604Z,0.70
2022-12-15T19:03:45.490Z,0.70
2022-12-15T19:05:48.419Z,0.70
2022-12-15T19:07:50.129Z,0.70
2022-12-15T19:09:52.403Z,0.70
2022-12-15T19:12:13.005Z,0.70
2022-12-15T19:14:34.846Z,0.70
2022-12-15T19:16:55.357Z,0.70
2022-12-15T19:19:17.451Z,0.80
2022-12-15T19:22:03.370Z,0.70
2022-12-15T19:24:07.558Z,0.70
2022-12-15T19:26:11.413Z,0.70
2022-12-15T19:28:20.869Z,0.70
2022-12-15T19:30:22.729Z,0.80
2022-12-15T19:32:24.617Z,0.80
2022-12-15T19:34:26.357Z,0.70
2022-12-15T19:36:32.235Z,0.80
2022-12-15T19:38:36.774Z,0.80
2022-12-15T19:40:38.668Z,0.80
2022-12-15T19:42:40.926Z,0.80
2022-12-15T19:44:42.641Z,0.90
2022-12-15T19:46:44.701Z,0.80
2022-12-15T19:48:47.298Z,0.80
2022-12-15T19:50:51.738Z,0.80
2022-12-15T19:53:02.016Z,0.80
2022-12-15T19:55:03.953Z,0.80
2022-12-15T19:57:13.336Z,0.90
2022-12-15T19:59:23.542Z,0.80
2022-12-15T20:01:25.436Z,0.90
2022-12-15T20:03:28.722Z,1.00
2022-12-15T20:05:30.616Z,0.90
2022-12-15T20:07:32.453Z,0.80
2022-12-15T20:09:34.699Z,0.90
2022-12-15T20:11:36.474Z,0.90
2022-12-15T20:13:38.281Z,0.70
2022-12-15T20:15:40.256Z,0.90
2022-12-15T20:17:42.066Z,0.90
2022-12-15T20:19:44.225Z,0.90
2022-12-15T20:21:46.079Z,0.80
2022-12-15T20:23:56.723Z,0.90
2022-12-15T20:25:58.597Z,0.90
2022-12-15T20:28:01.390Z,0.90
2022-12-15T20:30:04.011Z,0.90
2022-12-15T20:32:17.799Z,0.90
2022-12-15T20:34:19.903Z,0.90
2022-12-15T20:36:28.119Z,0.90
2022-12-15T20:38:32.192Z,0.90
2022-12-15T20:40:34.220Z,0.90
2022-12-15T20:42:35.977Z,1.00
2022-12-15T20:44:37.715Z,1.00
2022-12-15T20:46:40.106Z,1.00
2022-12-15T20:48:43.115Z,1.00
2022-12-15T20:50:49.694Z,1.00
2022-12-15T20:52:52.429Z,1.10
2022-12-15T20:54:56.728Z,1.10
2022-12-15T20:56:58.507Z,1.10
2022-12-15T20:59:00.298Z,1.10
2022-12-15T21:01:02.160Z,1.10
2022-12-15T21:03:19.828Z,1.20
2022-12-15T21:05:24.364Z,1.10
2022-12-15T21:07:26.124Z,1.20
2022-12-15T21:09:27.979Z,1.10
2022-12-15T21:11:32.849Z,1.20
2022-12-15T21:13:35.539Z,1.20
2022-12-15T21:15:37.916Z,1.20
2022-12-15T21:17:41.972Z,1.20
2022-12-15T21:19:44.787Z,1.20
2022-12-15T21:21:48.087Z,1.30
2022-12-15T21:23:50.185Z,1.30
2022-12-15T21:25:52.619Z,1.30
2022-12-15T21:27:55.259Z,1.20
2022-12-15T21:29:57.004Z,1.30
2022-12-15T21:31:58.750Z,1.30
2022-12-15T21:34:00.510Z,1.30
2022-12-15T21:36:02.602Z,1.40
2022-12-15T21:38:05.072Z,1.40
2022-12-15T21:40:07.696Z,1.40
2022-12-15T21:42:16.100Z,1.40
2022-12-15T21:44:18.437Z,1.40
2022-12-15T21:46:27.948Z,1.50
2022-12-15T21:48:48.352Z,1.40
2022-12-15T21:50:50.299Z,1.50
2022-12-15T21:52:53.495Z,1.40
2022-12-15T21:54:56.476Z,1.40
2022-12-15T21:57:02.781Z,1.40
2022-12-15T21:59:12.363Z,1.50
2022-12-15T22:01:19.633Z,1.50
2022-12-15T22:03:21.551Z,1.50
2022-12-15T22:05:30.805Z,1.50
2022-12-15T22:07:32.526Z,1.50
2022-12-15T22:09:34.241Z,1.60
2022-12-15T22:11:36.220Z,1.60
2022-12-15T22:13:39.288Z,1.60
2022-12-15T22:15:41.200Z,1.60
2022-12-15T22:17:44.041Z,1.60
2022-12-15T22:19:45.830Z,1.60
2022-12-15T22:21:47.771Z,1.60
2022-12-15T22:23:50.780Z,1.60
2022-12-15T22:25:55.485Z,1.60
2022-12-15T22:27:57.250Z,1.70
2022-12-15T22:29:58.975Z,1.70
2022-12-15T22:32:01.184Z,1.70
2022-12-15T22:34:11.816Z,1.70
2022-12-15T22:36:13.665Z,1.70
2022-12-15T22:38:16.127Z,1.70
2022-12-15T22:40:17.848Z,1.70
2022-12-15T22:42:19.605Z,1.70
2022-12-15T22:44:37.286Z,1.70
2022-12-15T22:46:39.044Z,1.70
2022-12-15T22:48:43.533Z,1.70
2022-12-15T22:50:45.294Z,1.70
2022-12-15T22:52:47.913Z,1.60
2022-12-15T22:54:49.727Z,1.60
2022-12-15T22:56:58.379Z,1.60
2022-12-15T22:59:05.695Z,1.60
2022-12-15T23:01:08.009Z,1.60
2022-12-15T23:03:11.875Z,1.70
2022-12-15T23:05:17.028Z,1.70
2022-12-15T23:07:19.868Z,1.70
2022-12-15T23:09:21.642Z,1.60
2022-12-15T23:11:39.333Z,1.60
2022-12-15T23:13:41.161Z,1.60
2022-12-15T23:16:01.822Z,1.70
2022-12-15T23:18:03.699Z,1.60
2022-12-15T23:20:05.978Z,1.70
2022-12-15T23:22:07.818Z,1.70
2022-12-15T23:24:09.573Z,1.60
2022-12-15T23:26:12.329Z,1.60
2022-12-15T23:28:14.114Z,1.60
2022-12-15T23:30:15.986Z,1.60
2022-12-15T23:32:17.739Z,1.60
2022-12-15T23:34:19.493Z,1.60
2022-12-15T23:36:21.336Z,1.60
2022-12-15T23:38:23.977Z,1.60
2022-12-15T23:40:25.697Z,1.60
2022-12-15T23:42:27.440Z,1.60
2022-12-15T23:44:30.149Z,1.60
2022-12-15T23:46:32.175Z,1.60
2022-12-15T23:48:39.088Z,1.60
2022-12-15T23:50:40.883Z,1.70
2022-12-15T23:52:42.618Z,1.70
2022-12-15T23:54:44.842Z,1.60
2022-12-15T23:56:46.624Z,1.80
2022-12-15T23:58:55.144Z,1.60
